La Mesa, Texas
Current Conditions -  °F | °C
As of 12:15 AM on Thursday 29 Jan 2015 (Local Time) from KGNC Reporting Station
Clear Clear  
Wind Chill: 46°   Ceiling: Unl
Heat Index: 46°   Visibility: 10mi
Dew Point: 38°   Wind: 3mph
Humidity: 74%   Direction: 330°NNW
Pressure: 30.16"   Gusts: NA
Location:  32.7457°N, 101.939°W
Report Text: KGNC 290615Z AUTO 33003KT 10SM CLR 08/03 A3016 RMK AO2 T00750031
Loading
Personal Weather Stations






























Interactive Weather Map New forecast layout! Learn more

10-Day Weather Forecast

Advertisements
Track Severe Weather on mobile